Time;durP1;ratioP1;P1;durP2;ratioP2;P2;SDS_P1;SDS_P2;PMS_P1;PMS_P2;Temp;Humidity;BMP_temperature;BMP_pressure;BME280_temperature;BME280_humidity;BME280_pressure;Samples;Min_cycle;Max_cycle;Signal;HPM_P1;HPM_P2
2022/06/14 00:01:57;;;;;;;26.17;10.77;;;22.30;53.50;;;;;;5062814;28;20028;-65
2022/06/14 00:04:23;;;;;;;26.83;10.13;;;22.30;53.40;;;;;;5064601;28;20413;-65
2022/06/14 00:06:49;;;;;;;28.75;11.38;;;22.30;53.40;;;;;;5062620;28;20024;-65
2022/06/14 00:09:14;;;;;;;23.77;9.10;;;22.30;53.50;;;;;;5067024;28;20506;-65
2022/06/14 00:11:40;;;;;;;22.75;10.00;;;22.30;53.60;;;;;;5064204;28;20025;-65
2022/06/14 00:14:07;;;;;;;25.05;10.38;;;22.30;53.50;;;;;;5070549;28;20047;-64
2022/06/14 00:16:33;;;;;;;23.60;9.48;;;22.30;53.60;;;;;;5064489;28;20032;-65
2022/06/14 00:18:58;;;;;;;21.77;9.88;;;22.30;53.60;;;;;;5060838;28;20258;-65
2022/06/14 00:21:25;;;;;;;25.25;10.13;;;22.30;53.50;;;;;;5067524;28;20040;-65
2022/06/14 00:23:50;;;;;;;23.98;9.65;;;22.20;53.60;;;;;;5062360;28;20527;-65
2022/06/14 00:26:16;;;;;;;23.83;9.65;;;22.20;53.40;;;;;;5063126;28;20054;-65
2022/06/14 00:28:43;;;;;;;22.98;9.68;;;22.20;53.50;;;;;;5064074;28;20031;-65
2022/06/14 00:31:13;;;;;;;22.13;10.15;;;22.20;53.50;;;;;;5060692;28;20033;-65
2022/06/14 00:33:38;;;;;;;23.88;9.48;;;22.20;53.60;;;;;;5062052;28;20037;-65
2022/06/14 00:36:19;;;;;;;23.58;9.82;;;22.20;53.60;;;;;;5063426;28;20597;-65
2022/06/14 00:38:44;;;;;;;22.75;9.13;;;22.20;53.70;;;;;;5059455;28;20029;-65
2022/06/14 00:41:12;;;;;;;24.92;9.63;;;22.20;53.60;;;;;;5064117;28;20027;-65
2022/06/14 00:43:38;;;;;;;23.42;9.73;;;22.20;53.60;;;;;;5061498;28;20119;-65
2022/06/14 00:46:21;;;;;;;22.80;9.07;;;22.10;53.70;;;;;;5063946;28;20111;-65
2022/06/14 00:48:49;;;;;;;22.23;9.60;;;22.10;53.70;;;;;;5060264;28;20024;-65
2022/06/14 00:51:21;;;;;;;20.85;9.02;;;22.10;53.60;;;;;;5060901;28;20036;-65
2022/06/14 00:53:49;;;;;;;21.05;8.80;;;22.10;53.70;;;;;;5063504;28;20025;-65
2022/06/14 00:56:18;;;;;;;22.33;9.25;;;22.10;53.70;;;;;;5062725;28;20538;-65
2022/06/14 00:59:16;;;;;;;20.92;8.88;;;22.10;53.70;;;;;;5063707;28;20135;-65
2022/06/14 01:01:42;;;;;;;22.23;9.20;;;22.10;53.70;;;;;;5063187;28;20816;-65
2022/06/14 01:04:16;;;;;;;20.17;8.88;;;22.10;53.70;;;;;;5059525;28;20037;-65
2022/06/14 01:06:49;;;;;;;22.02;9.23;;;22.10;53.70;;;;;;5062779;28;20044;-65
2022/06/14 01:09:21;;;;;;;21.08;9.07;;;22.00;53.80;;;;;;5062348;28;20033;-65
2022/06/14 01:11:51;;;;;;;22.17;8.75;;;22.00;53.70;;;;;;5059665;28;20020;-65
2022/06/14 01:14:20;;;;;;;22.92;9.13;;;22.00;53.70;;;;;;5061932;28;20032;-65
2022/06/14 01:16:46;;;;;;;21.13;9.55;;;22.00;53.80;;;;;;5062001;28;20031;-65
2022/06/14 01:19:19;;;;;;;18.90;8.52;;;22.00;53.80;;;;;;5062609;28;20036;-65
2022/06/14 01:22:10;;;;;;;23.92;9.45;;;22.00;53.60;;;;;;5058565;28;20032;-65
2022/06/14 01:24:36;;;;;;;21.05;8.32;;;22.00;53.80;;;;;;5050655;28;20543;-65
2022/06/14 01:27:04;;;;;;;21.70;8.55;;;22.00;53.70;;;;;;5062357;28;20025;-65
2022/06/14 01:29:29;;;;;;;22.90;9.00;;;21.90;53.70;;;;;;5043789;28;20028;-65
2022/06/14 01:31:59;;;;;;;21.83;8.43;;;21.90;53.80;;;;;;5060445;28;20095;-65
2022/06/14 01:34:25;;;;;;;21.20;8.75;;;21.90;53.50;;;;;;5043434;28;20066;-65
2022/06/14 01:36:50;;;;;;;19.85;8.27;;;21.90;53.60;;;;;;5065474;28;20032;-65
2022/06/14 01:39:18;;;;;;;19.35;8.05;;;21.90;53.70;;;;;;5062949;28;20033;-65
2022/06/14 01:42:18;;;;;;;20.42;7.95;;;21.90;53.50;;;;;;5064555;28;20047;-65
2022/06/14 01:44:51;;;;;;;19.83;8.68;;;21.90;53.50;;;;;;5057454;28;20667;-65
2022/06/14 01:47:35;;;;;;;17.92;7.82;;;21.90;53.50;;;;;;5065257;28;20060;-65
2022/06/14 01:53:09;;;;;;;19.33;8.27;;;21.80;53.40;;;;;;5062401;28;20044;-64
2022/06/14 01:55:45;;;;;;;17.35;7.85;;;21.80;53.40;;;;;;5061562;28;20031;-65
2022/06/14 01:58:21;;;;;;;22.38;8.45;;;21.80;53.50;;;;;;5063241;28;20434;-65
2022/06/14 02:01:12;;;;;;;16.80;7.40;;;21.80;53.50;;;;;;5061242;28;20066;-64
2022/06/14 02:06:34;;;;;;;17.23;7.13;;;21.80;53.50;;;;;;5063815;28;20508;-65
2022/06/14 02:09:06;;;;;;;19.27;8.15;;;21.80;53.50;;;;;;5063699;28;20028;-65
2022/06/14 02:11:33;;;;;;;17.38;7.07;;;21.70;53.50;;;;;;5062535;28;20184;-65
2022/06/14 02:14:17;;;;;;;16.65;7.07;;;21.70;53.50;;;;;;5062793;28;20108;-65
2022/06/14 02:16:51;;;;;;;16.52;7.00;;;21.70;53.50;;;;;;5066670;28;20024;-65
2022/06/14 02:19:37;;;;;;;18.38;7.60;;;21.70;53.50;;;;;;5061106;28;20029;-65
2022/06/14 02:22:08;;;;;;;17.58;7.70;;;21.70;53.50;;;;;;5064835;28;20438;-65
2022/06/14 02:24:44;;;;;;;16.98;7.57;;;21.70;53.50;;;;;;5062971;28;20021;-65
2022/06/14 02:27:28;;;;;;;17.60;7.18;;;21.70;53.50;;;;;;5064173;28;20078;-65
2022/06/14 02:29:56;;;;;;;18.73;7.70;;;21.70;53.50;;;;;;5063283;28;20025;-65
2022/06/14 02:32:42;;;;;;;18.75;7.43;;;21.70;53.50;;;;;;5067016;28;20078;-65
2022/06/14 02:35:16;;;;;;;16.92;6.82;;;21.70;53.50;;;;;;5063414;28;20075;-65
2022/06/14 02:38:00;;;;;;;18.17;7.15;;;21.70;53.50;;;;;;5065444;28;20059;-65
2022/06/14 02:40:33;;;;;;;15.32;6.50;;;21.60;53.50;;;;;;5062789;28;20039;-65
2022/06/14 02:43:23;;;;;;;16.90;7.05;;;21.60;53.50;;;;;;5062661;28;20064;-65
2022/06/14 02:45:58;;;;;;;15.30;7.00;;;21.60;53.50;;;;;;5059370;28;20017;-65
2022/06/14 02:48:40;;;;;;;14.38;6.25;;;21.60;53.50;;;;;;5065347;28;20020;-65
2022/06/14 02:51:21;;;;;;;16.65;7.18;;;21.60;53.50;;;;;;5061723;28;20079;-65
2022/06/14 02:54:02;;;;;;;15.95;6.35;;;21.60;53.50;;;;;;5059877;28;20024;-65
2022/06/14 02:56:45;;;;;;;17.17;6.90;;;21.50;53.50;;;;;;5061661;28;20111;-65
2022/06/14 02:59:54;;;;;;;14.07;6.47;;;21.60;53.50;;;;;;5065889;28;20602;-65
2022/06/14 03:02:26;;;;;;;15.63;6.40;;;21.50;53.50;;;;;;5059375;28;20056;-65
2022/06/14 03:05:16;;;;;;;14.88;6.10;;;21.50;53.50;;;;;;5066638;28;20032;-65
2022/06/14 03:07:46;;;;;;;15.98;6.10;;;21.50;53.50;;;;;;5068039;28;20050;-65
2022/06/14 03:10:12;;;;;;;16.25;6.63;;;21.50;53.50;;;;;;5045971;28;20039;-65
2022/06/14 03:12:50;;;;;;;15.52;6.43;;;21.50;53.50;;;;;;5045817;28;20029;-64
2022/06/14 03:15:31;;;;;;;17.23;6.68;;;21.50;53.50;;;;;;5063915;28;20056;-65
2022/06/14 03:18:19;;;;;;;15.77;6.93;;;21.50;53.60;;;;;;5060297;28;20064;-65
2022/06/14 03:20:51;;;;;;;14.52;6.45;;;21.50;53.60;;;;;;5062322;28;20035;-65
2022/06/14 03:23:32;;;;;;;15.13;6.18;;;21.50;53.60;;;;;;5062697;28;20117;-66
2022/06/14 03:26:05;;;;;;;17.70;6.38;;;21.40;53.70;;;;;;5066338;28;20012;-65
2022/06/14 03:28:39;;;;;;;13.82;5.90;;;21.50;53.70;;;;;;5074153;28;20032;-65
2022/06/14 03:31:22;;;;;;;16.25;6.18;;;21.50;53.70;;;;;;5064613;28;20135;-65
2022/06/14 03:33:55;;;;;;;13.77;5.82;;;21.40;53.80;;;;;;5051930;28;20158;-65
2022/06/14 03:36:21;;;;;;;13.57;5.57;;;21.40;53.80;;;;;;5057371;28;20036;-65
2022/06/14 03:38:50;;;;;;;17.25;6.50;;;21.40;53.80;;;;;;5063344;28;20037;-65
2022/06/14 03:41:19;;;;;;;15.70;6.00;;;21.40;53.80;;;;;;5064743;28;20077;-65
2022/06/14 03:43:45;;;;;;;15.15;6.03;;;21.40;53.80;;;;;;5063092;28;20786;-65
2022/06/14 03:46:14;;;;;;;13.60;5.13;;;21.40;53.80;;;;;;5062247;28;20020;-65
2022/06/14 03:48:41;;;;;;;13.52;5.60;;;21.40;53.90;;;;;;5064336;28;20446;-65
2022/06/14 03:51:28;;;;;;;14.02;5.50;;;21.40;53.90;;;;;;5062962;28;20043;-65
2022/06/14 03:54:23;;;;;;;13.35;5.47;;;21.40;54.00;;;;;;5060213;28;20032;-65
2022/06/14 03:57:26;;;;;;;15.93;5.83;;;21.40;54.10;;;;;;5061906;28;20025;-65
2022/06/14 03:59:55;;;;;;;14.48;5.40;;;21.40;54.00;;;;;;5061454;28;21006;-65
2022/06/14 04:02:54;;;;;;;14.10;5.30;;;21.30;54.10;;;;;;5061878;28;20017;-65
2022/06/14 04:05:53;;;;;;;14.02;5.35;;;21.30;54.10;;;;;;5062516;28;20026;-65
2022/06/14 04:08:38;;;;;;;13.07;5.45;;;21.30;55.30;;;;;;5060215;28;20114;-65
2022/06/14 04:11:07;;;;;;;;;;;21.30;54.40;;;;;;5063181;28;20120;-65
2022/06/14 04:13:43;;;;;;;13.98;5.95;;;21.30;55.40;;;;;;5060170;28;19919;-65
2022/06/14 04:16:42;;;;;;;13.05;5.57;;;21.30;54.50;;;;;;5060974;28;20025;-65
2022/06/14 04:19:13;;;;;;;13.52;5.18;;;21.30;54.50;;;;;;5060926;28;20074;-65
2022/06/14 04:21:56;;;;;;;14.10;5.88;;;21.30;54.60;;;;;;5065557;28;20524;-65
2022/06/14 04:24:32;;;;;;;13.02;5.30;;;21.30;54.50;;;;;;5065708;28;20520;-65
2022/06/14 04:27:19;;;;;;;11.85;5.05;;;21.30;54.70;;;;;;5062404;28;20021;-65
2022/06/14 04:30:14;;;;;;;14.30;5.55;;;21.30;54.70;;;;;;5062990;28;20094;-65
2022/06/14 04:32:44;;;;;;;12.00;4.93;;;21.20;55.20;;;;;;5063064;28;20025;-65
2022/06/14 04:35:20;;;;;;;12.85;5.07;;;21.30;54.80;;;;;;5064787;28;20043;-65
2022/06/14 04:37:50;;;;;;;14.80;5.40;;;21.20;54.80;;;;;;5068228;28;20036;-65
2022/06/14 04:40:26;;;;;;;14.35;5.90;;;21.20;54.90;;;;;;5067100;28;20036;-65
2022/06/14 04:43:00;;;;;;;12.27;5.60;;;21.20;54.90;;;;;;5063027;28;20734;-64
2022/06/14 04:45:32;;;;;;;13.27;5.53;;;21.20;55.00;;;;;;5063348;28;20060;-65
2022/06/14 04:48:04;;;;;;;12.80;5.25;;;21.20;55.00;;;;;;5059649;28;20271;-65
2022/06/14 04:50:41;;;;;;;13.18;5.50;;;21.20;55.10;;;;;;5061010;28;20533;-65
2022/06/14 04:53:23;;;;;;;13.95;5.18;;;21.20;55.00;;;;;;5065099;28;20024;-65
2022/06/14 04:55:50;;;;;;;12.43;4.85;;;21.20;55.10;;;;;;5063053;28;20370;-65
2022/06/14 04:58:23;;;;;;;13.52;5.80;;;21.20;55.10;;;;;;5057358;28;20071;-65
2022/06/14 05:01:19;;;;;;;12.52;4.90;;;21.20;55.10;;;;;;5062328;28;20020;-66
2022/06/14 05:03:54;;;;;;;14.02;5.30;;;21.20;55.10;;;;;;5075175;28;20059;-65
2022/06/14 05:06:42;;;;;;;12.85;4.72;;;21.20;55.00;;;;;;5064594;28;20016;-65
2022/06/14 05:09:36;;;;;;;9.57;3.35;;;21.10;54.40;;;;;;5060719;28;20117;-65
2022/06/14 05:12:10;;;;;;;9.57;3.45;;;21.10;52.80;;;;;;5083282;28;20033;-65
2022/06/14 05:14:38;;;;;;;9.82;3.67;;;21.10;52.60;;;;;;5071999;28;20041;-65
2022/06/14 05:17:24;;;;;;;9.52;2.80;;;21.10;52.20;;;;;;5069758;28;20484;-65
2022/06/14 05:19:58;;;;;;;8.98;2.83;;;21.00;51.90;;;;;;5065280;28;20497;-65
2022/06/14 05:22:42;;;;;;;9.32;3.03;;;21.00;52.10;;;;;;5065518;28;20045;-65
2022/06/14 05:25:08;;;;;;;10.02;3.03;;;21.00;51.80;;;;;;5069523;28;20027;-65
2022/06/14 05:27:37;;;;;;;11.45;3.65;;;21.00;51.70;;;;;;5066351;28;20051;-65
2022/06/14 05:30:21;;;;;;;11.50;3.10;;;21.00;52.60;;;;;;5063216;28;20028;-65
2022/06/14 05:32:52;;;;;;;9.63;3.08;;;21.00;53.00;;;;;;5066340;28;20234;-65
2022/06/14 05:35:32;;;;;;;9.35;3.40;;;21.00;53.00;;;;;;5067169;28;20408;-65
2022/06/14 05:38:04;;;;;;;9.80;2.90;;;21.00;53.10;;;;;;5072898;28;20039;-65
2022/06/14 05:40:31;;;;;;;10.00;3.17;;;21.00;53.20;;;;;;5065474;28;20153;-65
2022/06/14 05:43:05;;;;;;;11.60;3.38;;;21.00;53.40;;;;;;5068516;28;20055;-65
2022/06/14 05:45:30;;;;;;;9.98;3.20;;;21.00;53.30;;;;;;5068450;28;20047;-65
2022/06/14 05:48:07;;;;;;;9.52;3.60;;;21.00;53.50;;;;;;5069444;28;20044;-65
2022/06/14 05:50:39;;;;;;;9.32;3.65;;;21.00;53.50;;;;;;5065076;28;20076;-65
2022/06/14 05:53:15;;;;;;;13.40;3.92;;;21.00;53.70;;;;;;5069228;28;20036;-65
2022/06/14 05:56:06;;;;;;;13.02;3.55;;;21.00;53.80;;;;;;5070578;28;20066;-65
2022/06/14 05:58:35;;;;;;;13.35;3.60;;;21.00;53.80;;;;;;5065876;28;20123;-65
2022/06/14 06:01:16;;;;;;;19.45;3.83;;;21.00;53.90;;;;;;5054585;28;20129;-65
2022/06/14 06:03:50;;;;;;;15.48;3.90;;;21.00;54.00;;;;;;5051799;28;20439;-65
2022/06/14 06:06:21;;;;;;;16.98;4.00;;;21.00;54.00;;;;;;5070450;28;20032;-65
2022/06/14 06:08:59;;;;;;;25.17;4.75;;;21.00;54.00;;;;;;5064544;28;20060;-65
2022/06/14 06:11:32;;;;;;;26.52;4.75;;;21.00;54.30;;;;;;5063735;28;20111;-65
2022/06/14 06:14:05;;;;;;;26.13;5.20;;;21.00;54.20;;;;;;5066285;28;20047;-65
2022/06/14 06:16:38;;;;;;;24.85;5.30;;;21.00;54.20;;;;;;5066406;28;20037;-65
2022/06/14 06:19:11;;;;;;;31.25;5.65;;;21.00;54.40;;;;;;5064975;28;20033;-65
2022/06/14 06:21:52;;;;;;;32.60;6.00;;;21.00;54.40;;;;;;5065817;28;20115;-65
2022/06/14 06:24:34;;;;;;;36.92;6.22;;;21.00;54.40;;;;;;5065775;28;20044;-65
2022/06/14 06:27:08;;;;;;;41.28;6.90;;;21.00;54.50;;;;;;5066464;28;20020;-65
2022/06/14 06:29:48;;;;;;;34.88;6.43;;;21.00;54.50;;;;;;5065089;28;20025;-65
2022/06/14 06:32:15;;;;;;;28.48;6.18;;;21.00;54.50;;;;;;5064458;28;20028;-65
2022/06/14 06:34:41;;;;;;;29.05;6.28;;;21.00;54.50;;;;;;5081698;28;20428;-65
2022/06/14 06:37:17;;;;;;;30.17;6.35;;;21.00;54.50;;;;;;5065383;28;20108;-65
2022/06/14 06:40:04;;;;;;;30.60;6.70;;;21.00;54.50;;;;;;5065478;28;20059;-65
2022/06/14 06:42:39;;;;;;;29.80;5.70;;;21.10;54.50;;;;;;5064563;28;20039;-66
2022/06/14 06:45:28;;;;;;;31.38;6.13;;;21.00;54.40;;;;;;5063316;28;20493;-64
2022/06/14 06:48:21;;;;;;;35.22;6.38;;;21.00;54.50;;;;;;5063182;28;20033;-64
2022/06/14 06:50:51;;;;;;;28.30;6.25;;;21.10;54.60;;;;;;5062429;28;20041;-65
2022/06/14 06:53:19;;;;;;;32.22;6.47;;;21.00;54.60;;;;;;5067013;28;20024;-64
2022/06/14 06:55:57;;;;;;;34.05;6.25;;;21.00;54.80;;;;;;5064189;28;20033;-64
2022/06/14 06:58:27;;;;;;;29.77;5.90;;;21.10;54.80;;;;;;5064155;28;20039;-64
2022/06/14 07:00:57;;;;;;;29.02;6.10;;;21.00;54.80;;;;;;5065418;28;20032;-65
2022/06/14 07:03:42;;;;;;;25.83;6.13;;;21.10;54.80;;;;;;5065353;28;20400;-65
2022/06/14 07:06:18;;;;;;;33.00;6.35;;;21.10;54.90;;;;;;5062976;28;20109;-64
2022/06/14 07:08:52;;;;;;;23.33;5.57;;;21.10;55.00;;;;;;5064511;28;20492;-65
2022/06/14 07:11:18;;;;;;;27.27;6.10;;;21.10;55.00;;;;;;5064386;28;20032;-65
2022/06/14 07:13:44;;;;;;;29.80;6.30;;;21.10;55.00;;;;;;5065643;28;20024;-65
2022/06/14 07:16:27;;;;;;;26.50;5.75;;;21.10;55.00;;;;;;5062312;28;20031;-64
2022/06/14 07:19:13;;;;;;;30.75;6.07;;;21.10;56.00;;;;;;5061858;28;20528;-65
2022/06/14 07:21:45;;;;;;;30.17;5.75;;;21.10;54.90;;;;;;5063500;28;20028;-65
2022/06/14 07:24:18;;;;;;;23.58;5.75;;;21.10;54.90;;;;;;5047625;28;20029;-64
2022/06/14 07:26:46;;;;;;;24.20;6.32;;;21.10;55.00;;;;;;5049176;28;20035;-65
2022/06/14 07:29:19;;;;;;;26.65;5.57;;;21.20;55.00;;;;;;5066892;28;20029;-65
2022/06/14 07:31:53;;;;;;;23.35;5.18;;;21.10;55.00;;;;;;5062605;28;20024;-65
2022/06/14 07:34:19;;;;;;;28.83;5.80;;;21.10;55.00;;;;;;5064165;28;20028;-64
2022/06/14 07:37:18;;;;;;;26.27;5.68;;;21.10;55.00;;;;;;5062606;28;20021;-65
2022/06/14 07:40:11;;;;;;;22.95;5.30;;;21.20;54.90;;;;;;5064705;28;20099;-65
2022/06/14 07:42:56;;;;;;;21.80;5.25;;;21.20;54.80;;;;;;5063401;28;20028;-65
2022/06/14 07:45:28;;;;;;;21.25;5.13;;;21.20;54.90;;;;;;5058675;28;20047;-65
2022/06/14 07:47:55;;;;;;;21.35;4.90;;;21.20;54.90;;;;;;5065063;28;20032;-65
2022/06/14 07:50:47;;;;;;;21.00;4.93;;;21.20;54.90;;;;;;5062624;28;20046;-65
2022/06/14 07:53:52;;;;;;;26.17;5.07;;;21.20;54.90;;;;;;5066019;28;20040;-65
2022/06/14 07:56:45;;;;;;;23.05;5.03;;;21.20;55.00;;;;;;5007950;28;20517;-65
2022/06/14 07:59:14;;;;;;;22.38;4.85;;;21.20;56.00;;;;;;5014102;28;20038;-65
2022/06/14 08:02:03;;;;;;;23.35;5.07;;;21.20;55.00;;;;;;5023850;28;20029;-65
2022/06/14 08:04:35;;;;;;;23.63;5.38;;;21.20;55.00;;;;;;5019983;28;20077;-65
2022/06/14 08:07:15;;;;;;;21.00;5.10;;;21.30;55.10;;;;;;5023234;28;20018;-65
2022/06/14 08:09:41;;;;;;;21.65;4.95;;;21.30;55.10;;;;;;5022401;28;20544;-65
2022/06/14 08:12:16;;;;;;;24.70;5.35;;;21.30;55.10;;;;;;5020740;28;20108;-65
2022/06/14 08:14:50;;;;;;;22.60;5.25;;;21.30;55.10;;;;;;5022918;28;20745;-65
2022/06/14 08:17:47;;;;;;;17.85;5.03;;;21.30;55.20;;;;;;5005777;28;20184;-65
2022/06/14 08:20:22;;;;;;;23.52;5.22;;;21.30;55.20;;;;;;5020585;28;20052;-65
2022/06/14 08:22:51;;;;;;;19.45;5.25;;;21.30;55.20;;;;;;5004974;28;20038;-65
2022/06/14 08:25:22;;;;;;;20.88;4.55;;;21.30;55.20;;;;;;5022469;28;20049;-65
2022/06/14 08:27:55;;;;;;;19.98;5.03;;;21.30;55.30;;;;;;5020575;28;20061;-65
2022/06/14 08:30:23;;;;;;;17.95;4.57;;;21.30;55.20;;;;;;5043739;28;20051;-65
2022/06/14 08:33:00;;;;;;;20.10;4.60;;;21.40;55.40;;;;;;5063717;28;20037;-65
2022/06/14 08:35:39;;;;;;;17.45;4.65;;;21.40;55.30;;;;;;5062310;28;20021;-65
2022/06/14 08:38:08;;;;;;;18.35;4.95;;;21.40;55.30;;;;;;5064433;28;20208;-65
2022/06/14 08:40:55;;;;;;;19.65;4.45;;;21.40;55.30;;;;;;5062431;28;20036;-65
2022/06/14 08:43:27;;;;;;;19.17;4.45;;;21.40;55.30;;;;;;5060574;28;20115;-66
2022/06/14 08:46:24;;;;;;;22.15;4.90;;;21.40;55.30;;;;;;5065016;28;20036;-65
2022/06/14 08:49:08;;;;;;;18.85;5.10;;;21.40;55.30;;;;;;5067194;28;20075;-65
2022/06/14 08:51:58;;;;;;;18.20;4.75;;;21.40;55.40;;;;;;5067482;28;20451;-65
2022/06/14 08:54:39;;;;;;;16.65;4.32;;;21.40;55.20;;;;;;5066759;28;20082;-65
2022/06/14 08:57:30;;;;;;;17.25;4.15;;;21.50;55.30;;;;;;5065876;28;20036;-65
2022/06/14 08:59:55;;;;;;;16.17;4.05;;;21.50;55.40;;;;;;5067638;28;20077;-65
2022/06/14 09:03:03;;;;;;;15.57;4.10;;;21.50;55.30;;;;;;5067203;28;20032;-65
2022/06/14 09:06:00;;;;;;;17.35;4.22;;;21.50;55.20;;;;;;5062333;28;20543;-64
2022/06/14 09:08:32;;;;;;;15.18;3.95;;;21.50;55.40;;;;;;5066750;28;20055;-65
2022/06/14 09:11:36;;;;;;;18.88;4.20;;;21.50;55.40;;;;;;5068565;28;20025;-65
2022/06/14 09:14:52;;;;;;;18.77;4.30;;;21.60;55.40;;;;;;5045973;28;20072;-65
2022/06/14 09:17:48;;;;;;;17.30;4.05;;;21.50;55.20;;;;;;4991026;28;20540;-65
2022/06/14 09:20:21;;;;;;;;;;;21.60;55.30;;;;;;5008131;28;20049;-65
2022/06/14 09:23:04;;;;;;;14.68;4.07;;;21.60;55.40;;;;;;4991391;28;19920;-65
2022/06/14 09:25:47;;;;;;;14.57;3.83;;;21.60;55.40;;;;;;5004606;28;20584;-65
2022/06/14 09:28:26;;;;;;;16.23;4.32;;;21.60;55.30;;;;;;5005600;28;20034;-66
2022/06/14 09:31:16;;;;;;;16.15;5.10;;;21.70;55.70;;;;;;5003304;28;20092;-65
2022/06/14 09:34:05;;;;;;;15.55;4.28;;;21.70;56.50;;;;;;5002589;28;20056;-66
2022/06/14 09:36:42;;;;;;;16.20;4.43;;;21.70;56.60;;;;;;5001736;28;20487;-66
2022/06/14 09:39:13;;;;;;;19.67;4.38;;;21.70;56.70;;;;;;5004249;28;20038;-65
2022/06/14 09:41:46;;;;;;;18.33;4.18;;;21.80;56.80;;;;;;5006392;28;20026;-65
2022/06/14 09:44:20;;;;;;;15.18;4.15;;;21.80;56.80;;;;;;5005126;28;20518;-66
2022/06/14 09:47:22;;;;;;;16.77;4.18;;;21.80;56.70;;;;;;5007267;28;20076;-65
2022/06/14 09:50:07;;;;;;;17.08;3.90;;;21.80;56.60;;;;;;5017307;28;20492;-66
2022/06/14 09:52:44;;;;;;;15.77;4.18;;;21.90;56.80;;;;;;5036476;28;21508;-65
2022/06/14 09:55:23;;;;;;;16.67;4.03;;;21.90;56.80;;;;;;5065591;28;20028;-65
2022/06/14 09:58:15;;;;;;;15.70;3.92;;;21.90;56.70;;;;;;5065174;28;20029;-65
2022/06/14 10:01:39;;;;;;;13.15;3.58;;;21.90;56.40;;;;;;5065731;28;20079;-65
2022/06/14 10:04:15;;;;;;;13.30;3.88;;;22.00;56.50;;;;;;5025789;28;20069;-66
2022/06/14 10:06:59;;;;;;;16.30;4.10;;;22.00;56.30;;;;;;5025595;28;20047;-66
2022/06/14 10:09:32;;;;;;;16.33;3.77;;;22.00;56.10;;;;;;5023269;28;20049;-66
2022/06/14 10:12:03;;;;;;;15.68;4.07;;;22.00;56.10;;;;;;5020984;28;20811;-66
2022/06/14 10:14:52;;;;;;;11.80;3.58;;;22.00;56.10;;;;;;5024657;28;20503;-65
2022/06/14 10:17:37;;;;;;;12.75;3.88;;;22.10;56.20;;;;;;4986659;28;20045;-65
2022/06/14 10:20:27;;;;;;;11.23;3.45;;;22.10;56.00;;;;;;4985157;28;20084;-65
2022/06/14 10:23:15;;;;;;;11.23;3.58;;;22.10;56.10;;;;;;4987008;28;20724;-65
2022/06/14 10:29:45;;;;;;;11.48;3.53;;;22.20;56.00;;;;;;4946311;28;20046;-66
2022/06/14 10:32:34;;;;;;;14.00;3.63;;;22.20;56.10;;;;;;4934531;29;20630;-65
2022/06/14 10:35:12;;;;;;;11.65;3.45;;;22.20;56.20;;;;;;4961010;28;20042;-66
2022/06/14 10:38:14;;;;;;;13.10;3.58;;;22.30;56.10;;;;;;4963966;28;20159;-65
2022/06/14 10:40:53;;;;;;;14.25;3.58;;;22.30;56.10;;;;;;4965206;28;20101;-66
2022/06/14 10:43:41;;;;;;;12.05;3.55;;;22.30;56.00;;;;;;4948293;28;20787;-65
2022/06/14 10:46:17;;;;;;;11.93;3.47;;;22.30;56.00;;;;;;4950862;28;20071;-65
2022/06/14 10:48:49;;;;;;;10.05;3.08;;;22.30;56.00;;;;;;4948120;28;20070;-65
2022/06/14 10:51:33;;;;;;;12.57;3.60;;;22.30;56.00;;;;;;4948070;28;20038;-65
2022/06/14 10:54:27;;;;;;;11.40;3.40;;;22.40;56.10;;;;;;4959771;28;20088;-65
2022/06/14 10:56:56;;;;;;;11.48;3.70;;;22.40;56.10;;;;;;4990286;28;20030;-65
2022/06/14 10:59:34;;;;;;;11.40;3.60;;;22.40;56.00;;;;;;5001830;28;20438;-66
2022/06/14 11:02:41;;;;;;;10.93;3.50;;;22.40;56.00;;;;;;4986504;28;20018;-66
2022/06/14 11:05:21;;;;;;;11.35;3.22;;;22.40;56.00;;;;;;5002533;28;21658;-65
2022/06/14 11:07:58;;;;;;;11.20;3.50;;;22.50;56.00;;;;;;5043813;28;20083;-65
2022/06/14 11:10:41;;;;;;;9.95;3.20;;;22.50;56.10;;;;;;5039003;28;20115;-65
2022/06/14 11:13:22;;;;;;;8.60;3.20;;;22.50;56.10;;;;;;5041009;28;20459;-65
2022/06/14 11:15:54;;;;;;;11.55;3.25;;;22.50;56.00;;;;;;5025891;28;20044;-66
2022/06/14 11:18:30;;;;;;;9.20;2.75;;;22.50;56.10;;;;;;5025952;28;20036;-65
2022/06/14 11:21:19;;;;;;;10.23;3.13;;;22.50;56.10;;;;;;5027393;28;20641;-65
2022/06/14 11:24:03;;;;;;;12.07;3.13;;;22.50;56.10;;;;;;5038888;28;20062;-65
2022/06/14 11:26:47;;;;;;;10.07;2.97;;;22.50;56.00;;;;;;5024542;28;20024;-66
2022/06/14 11:29:28;;;;;;;10.88;3.22;;;22.60;56.00;;;;;;5044375;28;20043;-65
2022/06/14 11:32:07;;;;;;;9.38;2.92;;;22.60;56.20;;;;;;5026194;28;20112;-66
2022/06/14 11:35:02;;;;;;;9.02;2.83;;;22.60;56.10;;;;;;5024784;28;20077;-65
2022/06/14 11:37:49;;;;;;;9.50;3.05;;;22.60;56.20;;;;;;5026627;28;20519;-64
2022/06/14 11:40:25;;;;;;;8.90;2.88;;;22.60;56.20;;;;;;5041085;28;20107;-65
2022/06/14 11:43:05;;;;;;;12.25;3.70;;;22.60;56.10;;;;;;5062869;28;20044;-65
2022/06/14 11:45:41;;;;;;;9.75;3.42;;;22.60;56.20;;;;;;5062817;28;20505;-65
2022/06/14 11:48:32;;;;;;;7.90;2.80;;;22.70;56.20;;;;;;5063574;28;20043;-65
2022/06/14 11:51:21;;;;;;;9.05;3.08;;;22.70;56.20;;;;;;5062917;28;20052;-66
2022/06/14 11:54:09;;;;;;;8.27;2.80;;;22.70;56.20;;;;;;5064075;28;20044;-65
2022/06/14 11:56:35;;;;;;;10.55;2.88;;;22.70;56.10;;;;;;5063306;28;20037;-66
2022/06/14 11:59:07;;;;;;;8.48;3.00;;;22.70;56.00;;;;;;5065039;28;20042;-65
2022/06/14 12:01:42;;;;;;;8.98;2.92;;;22.70;55.90;;;;;;5061650;28;20036;-65
2022/06/14 12:04:33;;;;;;;9.63;2.97;;;22.70;55.90;;;;;;5059625;28;20493;-65
2022/06/14 12:07:30;;;;;;;9.52;2.83;;;22.80;55.90;;;;;;5061366;28;20017;-65
2022/06/14 12:10:29;;;;;;;10.88;3.08;;;22.70;55.90;;;;;;5059914;28;20033;-65
2022/06/14 12:13:11;;;;;;;7.60;2.75;;;22.70;55.90;;;;;;5062242;28;20031;-65
2022/06/14 12:15:54;;;;;;;8.40;2.67;;;22.80;56.10;;;;;;5061206;28;20734;-65
2022/06/14 12:18:21;;;;;;;8.90;2.60;;;22.80;56.00;;;;;;5063680;28;20123;-65
2022/06/14 12:21:14;;;;;;;11.57;2.70;;;22.80;56.00;;;;;;5061622;28;20108;-65
2022/06/14 12:23:45;;;;;;;11.23;2.97;;;22.80;55.90;;;;;;5062505;28;20452;-65
2022/06/14 12:29:18;;;;;;;9.15;2.80;;;22.90;56.00;;;;;;5064416;28;20660;-65
2022/06/14 12:32:06;;;;;;;9.02;2.50;;;22.90;56.00;;;;;;5064391;28;20076;-66
2022/06/14 12:34:34;;;;;;;9.82;2.80;;;22.90;56.00;;;;;;5062462;28;20052;-66
2022/06/14 12:37:25;;;;;;;9.65;2.53;;;23.00;56.10;;;;;;5062121;28;20523;-65
2022/06/14 12:40:22;;;;;;;9.10;2.80;;;23.00;56.00;;;;;;5062499;28;20559;-66
2022/06/14 12:43:16;;;;;;;10.68;2.90;;;23.00;56.00;;;;;;5063436;28;20138;-64
2022/06/14 12:45:43;;;;;;;8.50;2.65;;;23.00;56.10;;;;;;5060401;28;20455;-65
2022/06/14 12:48:30;;;;;;;8.57;2.45;;;23.00;56.00;;;;;;5078560;28;20028;-64
2022/06/14 12:51:16;;;;;;;9.60;2.50;;;23.00;56.00;;;;;;5063345;28;20116;-65
2022/06/14 12:54:17;;;;;;;7.65;2.42;;;23.10;55.90;;;;;;5062897;28;20048;-66
2022/06/14 12:56:51;;;;;;;7.53;2.67;;;23.10;55.80;;;;;;5063946;28;20017;-65
2022/06/14 12:59:26;;;;;;;7.22;2.38;;;23.10;55.90;;;;;;5061547;28;20043;-65
2022/06/14 13:01:55;;;;;;;7.85;2.55;;;23.10;55.80;;;;;;5063012;28;20087;-65
2022/06/14 13:04:27;;;;;;;10.55;2.80;;;23.10;55.80;;;;;;5064785;28;20040;-65
2022/06/14 13:07:02;;;;;;;7.07;2.45;;;23.10;55.70;;;;;;5063933;28;20021;-65
2022/06/14 13:09:59;;;;;;;9.07;2.80;;;23.20;55.70;;;;;;5062524;28;20029;-64
2022/06/14 13:12:33;;;;;;;9.20;2.45;;;23.20;55.60;;;;;;5062984;28;20028;-65
2022/06/14 13:15:02;;;;;;;10.25;2.70;;;23.20;55.70;;;;;;5059881;28;20024;-65
2022/06/14 13:17:57;;;;;;;6.90;2.38;;;23.20;55.60;;;;;;5063924;28;20025;-65
2022/06/14 13:20:31;;;;;;;8.50;2.67;;;23.20;55.50;;;;;;5022812;28;20045;-65
2022/06/14 13:23:25;;;;;;;9.07;2.58;;;23.20;55.50;;;;;;5008018;28;20087;-65
2022/06/14 13:26:19;;;;;;;7.63;2.72;;;23.30;55.50;;;;;;5023708;28;20426;-66
2022/06/14 13:29:08;;;;;;;6.55;2.55;;;23.30;55.50;;;;;;5010757;28;20064;-65
2022/06/14 13:31:42;;;;;;;7.85;2.80;;;23.30;56.50;;;;;;5009988;28;20060;-66
2022/06/14 13:34:35;;;;;;;4.72;2.20;;;23.30;55.40;;;;;;5025604;28;20030;-64
2022/06/14 13:37:14;;;;;;;8.52;2.47;;;23.30;55.40;;;;;;5024213;28;20029;-66
2022/06/14 13:39:53;;;;;;;7.57;2.50;;;23.30;55.20;;;;;;5007561;28;20022;-66
2022/06/14 13:42:32;;;;;;;7.90;2.60;;;23.40;55.30;;;;;;5025875;28;20037;-65
2022/06/14 13:45:20;;;;;;;8.27;2.60;;;23.40;55.30;;;;;;5010393;28;20042;-65
2022/06/14 13:47:52;;;;;;;6.88;2.13;;;23.40;55.20;;;;;;5001898;28;20429;-65
2022/06/14 13:50:20;;;;;;;7.60;2.53;;;23.40;55.20;;;;;;5007681;28;20514;-66